createdAt,value
2019-03-19T00:01:52.892Z,2.80
2019-03-19T00:04:21.438Z,2.23
2019-03-19T00:06:50.008Z,3.07
2019-03-19T00:09:18.664Z,2.70
2019-03-19T00:11:47.250Z,2.17
2019-03-19T00:14:15.835Z,2.30
2019-03-19T00:16:44.382Z,2.23
2019-03-19T00:19:12.970Z,2.40
2019-03-19T00:21:41.612Z,2.37
2019-03-19T00:24:10.184Z,1.97
2019-03-19T00:26:38.763Z,2.27
2019-03-19T00:29:07.378Z,2.60
2019-03-19T00:31:35.940Z,2.23
2019-03-19T00:34:04.530Z,2.87
2019-03-19T00:36:33.135Z,2.47
2019-03-19T00:39:01.728Z,2.70
2019-03-19T00:41:30.301Z,2.37
2019-03-19T00:43:58.862Z,2.40
2019-03-19T00:46:27.423Z,2.23
2019-03-19T00:48:56.007Z,3.07
2019-03-19T00:51:24.559Z,2.07
2019-03-19T00:53:53.124Z,2.60
2019-03-19T00:56:21.767Z,3.00
2019-03-19T00:58:50.316Z,2.40
2019-03-19T01:01:18.948Z,2.37
2019-03-19T01:03:47.530Z,2.70
2019-03-19T01:06:16.090Z,2.60
2019-03-19T01:08:44.640Z,2.60
2019-03-19T01:11:13.260Z,2.63
2019-03-19T01:13:41.830Z,2.50
2019-03-19T01:16:10.495Z,2.50
2019-03-19T01:18:39.095Z,2.30
2019-03-19T01:21:07.642Z,2.50
2019-03-19T01:23:36.279Z,2.53
2019-03-19T01:26:04.856Z,2.53
2019-03-19T01:28:33.444Z,2.67
2019-03-19T01:31:02.006Z,2.70
2019-03-19T01:33:30.590Z,2.60
2019-03-19T01:35:59.138Z,2.33
2019-03-19T01:38:27.779Z,2.23
2019-03-19T01:40:56.370Z,2.47
2019-03-19T01:43:24.968Z,2.20
2019-03-19T01:45:53.577Z,2.20
2019-03-19T01:48:22.145Z,2.60
2019-03-19T01:50:50.748Z,2.70
2019-03-19T01:53:19.294Z,2.63
2019-03-19T01:55:47.911Z,2.50
2019-03-19T01:58:16.477Z,2.50
2019-03-19T02:00:45.059Z,2.40
2019-03-19T02:03:13.654Z,3.40
2019-03-19T02:05:42.196Z,2.60
2019-03-19T02:08:10.766Z,2.30
2019-03-19T02:10:39.366Z,2.60
2019-03-19T02:13:07.933Z,2.30
2019-03-19T02:15:36.557Z,2.47
2019-03-19T02:18:05.270Z,2.53
2019-03-19T02:20:33.836Z,2.43
2019-03-19T02:23:04.583Z,2.60
2019-03-19T02:25:32.797Z,2.30
2019-03-19T02:28:01.360Z,2.80
2019-03-19T02:30:29.924Z,2.20
2019-03-19T02:32:58.535Z,2.80
2019-03-19T02:35:27.100Z,2.33
2019-03-19T02:37:55.660Z,2.70
2019-03-19T02:40:24.289Z,2.67
2019-03-19T02:42:52.922Z,2.10
2019-03-19T02:45:21.463Z,2.37
2019-03-19T02:47:50.076Z,2.80
2019-03-19T02:50:18.636Z,2.30
2019-03-19T02:52:47.243Z,2.50
2019-03-19T02:55:15.936Z,2.70
2019-03-19T02:57:44.519Z,2.40
2019-03-19T03:00:13.105Z,2.40
2019-03-19T03:02:41.755Z,2.40
2019-03-19T03:05:10.950Z,2.60
2019-03-19T03:07:39.576Z,2.23
2019-03-19T03:10:08.718Z,2.50
2019-03-19T03:12:37.275Z,2.60
2019-03-19T03:15:05.989Z,2.60
2019-03-19T03:17:34.614Z,2.50
2019-03-19T03:20:03.214Z,2.60
2019-03-19T03:22:31.851Z,2.60
2019-03-19T03:25:00.529Z,2.43
2019-03-19T03:27:29.895Z,2.20
2019-03-19T03:29:59.044Z,2.37
2019-03-19T03:32:28.133Z,2.30
2019-03-19T03:34:57.222Z,2.53
2019-03-19T03:37:26.284Z,2.50
2019-03-19T03:39:55.360Z,2.43
2019-03-19T03:42:24.482Z,2.57
2019-03-19T03:44:53.569Z,2.60
2019-03-19T03:47:22.722Z,2.40
2019-03-19T03:49:51.898Z,2.40
2019-03-19T03:52:20.969Z,2.43
2019-03-19T03:54:50.069Z,2.43
2019-03-19T03:57:19.157Z,2.43
2019-03-19T03:59:48.258Z,2.63
2019-03-19T04:02:17.423Z,2.73
2019-03-19T04:04:46.523Z,2.67
2019-03-19T04:07:15.576Z,2.60
2019-03-19T04:09:44.635Z,2.57
2019-03-19T04:12:13.843Z,2.40
2019-03-19T04:14:42.922Z,2.10
2019-03-19T04:17:12.004Z,2.60
2019-03-19T04:19:41.065Z,2.50
2019-03-19T04:22:10.163Z,2.47
2019-03-19T04:24:39.240Z,2.80
2019-03-19T04:27:15.826Z,2.60
2019-03-19T04:29:39.042Z,2.53
2019-03-19T04:32:08.122Z,2.60
2019-03-19T04:34:37.220Z,2.40
2019-03-19T04:37:06.291Z,2.10
2019-03-19T04:39:35.413Z,2.67
2019-03-19T04:42:04.484Z,2.60
2019-03-19T04:44:33.599Z,2.60
2019-03-19T04:47:02.751Z,2.70
2019-03-19T04:49:31.736Z,2.40
2019-03-19T04:52:00.822Z,2.47
2019-03-19T04:54:29.911Z,2.80
2019-03-19T04:56:59.058Z,2.67
2019-03-19T04:59:28.194Z,2.80
2019-03-19T05:01:57.319Z,2.33
2019-03-19T05:04:26.410Z,2.70
2019-03-19T05:06:55.484Z,2.50
2019-03-19T05:09:24.635Z,2.43
2019-03-19T05:11:53.723Z,2.87
2019-03-19T05:14:22.803Z,2.77
2019-03-19T05:16:51.874Z,2.50
2019-03-19T05:19:21.206Z,2.63
2019-03-19T05:21:50.278Z,2.60
2019-03-19T05:24:19.364Z,2.70
2019-03-19T05:26:48.715Z,2.60
2019-03-19T05:29:17.830Z,2.50
2019-03-19T05:31:46.934Z,2.17
2019-03-19T05:34:16.123Z,2.50
2019-03-19T05:36:45.262Z,2.40
2019-03-19T05:39:14.359Z,2.77
2019-03-19T05:41:43.461Z,2.63
2019-03-19T05:44:12.606Z,2.80
2019-03-19T05:46:41.662Z,2.70
2019-03-19T05:49:10.820Z,2.20
2019-03-19T05:51:39.935Z,2.40
2019-03-19T05:54:08.491Z,2.20
2019-03-19T05:56:37.119Z,2.50
2019-03-19T05:59:05.658Z,2.27
2019-03-19T06:01:34.235Z,2.37
2019-03-19T06:04:04.390Z,2.50
2019-03-19T06:06:32.962Z,2.13
2019-03-19T06:09:01.518Z,2.33
2019-03-19T06:11:30.111Z,2.90
2019-03-19T06:13:58.653Z,2.80
2019-03-19T06:16:27.318Z,2.30
2019-03-19T06:18:55.891Z,3.10
2019-03-19T06:21:24.436Z,2.50
2019-03-19T06:23:53.074Z,2.73
2019-03-19T06:26:21.723Z,2.40
2019-03-19T06:28:50.287Z,2.10
2019-03-19T06:31:18.873Z,2.33
2019-03-19T06:33:48.266Z,2.30
2019-03-19T06:36:17.060Z,2.20
2019-03-19T06:38:45.616Z,2.70
2019-03-19T06:41:14.225Z,2.03
2019-03-19T06:43:42.875Z,2.27
2019-03-19T06:46:11.433Z,2.23
2019-03-19T06:48:40.047Z,1.97
2019-03-19T06:51:08.661Z,3.00
2019-03-19T06:53:37.305Z,2.10
2019-03-19T06:56:05.912Z,2.80
2019-03-19T06:58:34.550Z,1.97
2019-03-19T07:01:03.145Z,2.00
2019-03-19T07:03:31.743Z,2.20
2019-03-19T07:06:00.352Z,2.23
2019-03-19T07:08:28.942Z,2.13
2019-03-19T07:10:57.505Z,1.93
2019-03-19T07:13:26.050Z,2.00
2019-03-19T07:15:54.626Z,2.07
2019-03-19T07:18:23.190Z,2.00
2019-03-19T07:20:51.819Z,2.73
2019-03-19T07:23:20.584Z,2.60
2019-03-19T07:25:49.195Z,2.10
2019-03-19T07:28:21.849Z,1.90
2019-03-19T07:30:48.067Z,1.97
2019-03-19T07:33:16.699Z,1.80
2019-03-19T07:35:45.371Z,1.90
2019-03-19T07:38:13.939Z,2.10
2019-03-19T07:40:42.475Z,2.10
2019-03-19T07:43:11.046Z,2.07
2019-03-19T07:45:39.638Z,1.80
2019-03-19T07:48:08.185Z,2.10
2019-03-19T07:50:36.745Z,2.20
2019-03-19T07:53:05.342Z,2.07
2019-03-19T07:55:33.907Z,1.90
2019-03-19T07:58:03.649Z,2.23
2019-03-19T08:00:32.234Z,1.93
2019-03-19T08:03:00.819Z,1.50
2019-03-19T08:05:33.315Z,2.10
2019-03-19T08:07:59.648Z,1.80
2019-03-19T08:10:28.217Z,1.83
2019-03-19T08:12:56.817Z,1.70
2019-03-19T08:15:25.407Z,1.77
2019-03-19T08:17:53.956Z,2.10
2019-03-19T08:20:22.499Z,1.70
2019-03-19T08:22:51.087Z,1.73
2019-03-19T08:25:19.652Z,1.73
2019-03-19T08:27:48.206Z,1.57
2019-03-19T08:30:16.779Z,1.63
2019-03-19T08:32:45.355Z,1.60
2019-03-19T08:35:14.072Z,2.20
2019-03-19T08:37:42.694Z,1.70
2019-03-19T08:40:11.801Z,1.80
2019-03-19T08:42:40.371Z,1.70
2019-03-19T08:45:09.838Z,2.50
2019-03-19T08:47:38.521Z,1.97
2019-03-19T08:50:08.236Z,1.77
2019-03-19T08:52:36.842Z,1.70
2019-03-19T08:55:05.493Z,1.43
2019-03-19T08:57:34.073Z,2.20
2019-03-19T09:00:02.677Z,1.23
2019-03-19T09:02:31.226Z,2.30
2019-03-19T09:04:59.797Z,1.70
2019-03-19T09:07:28.472Z,1.33
2019-03-19T09:09:57.027Z,1.87
2019-03-19T09:12:25.577Z,1.80
2019-03-19T09:14:54.153Z,1.50
2019-03-19T09:17:22.726Z,2.00
2019-03-19T09:19:51.278Z,1.40
2019-03-19T09:22:20.045Z,1.97
2019-03-19T09:24:48.611Z,1.87
2019-03-19T09:27:17.158Z,1.60
2019-03-19T09:29:45.771Z,2.03
2019-03-19T09:32:14.337Z,1.57
2019-03-19T09:34:42.887Z,1.60
2019-03-19T09:37:11.462Z,2.03
2019-03-19T09:39:40.040Z,1.80
2019-03-19T09:42:08.656Z,1.57
2019-03-19T09:44:37.239Z,1.90
2019-03-19T09:47:05.786Z,1.30
2019-03-19T09:49:34.363Z,2.00
2019-03-19T09:52:04.538Z,1.20
2019-03-19T09:54:33.124Z,1.30
2019-03-19T09:57:01.784Z,1.27
2019-03-19T09:59:30.335Z,1.70
2019-03-19T10:01:58.962Z,1.40
2019-03-19T10:04:27.580Z,1.23
2019-03-19T10:07:05.675Z,1.90
2019-03-19T10:09:26.507Z,1.03
2019-03-19T10:11:55.113Z,1.00
2019-03-19T10:14:23.731Z,1.70
2019-03-19T10:16:52.330Z,1.20
2019-03-19T10:19:20.946Z,1.30
2019-03-19T10:21:49.587Z,1.30
2019-03-19T10:24:18.167Z,1.30
2019-03-19T10:26:46.738Z,1.40
2019-03-19T10:29:15.288Z,1.17
2019-03-19T10:31:43.863Z,1.20
2019-03-19T10:34:12.427Z,1.20
2019-03-19T10:36:40.990Z,1.33
2019-03-19T10:39:09.578Z,1.27
2019-03-19T10:41:38.135Z,1.10
2019-03-19T10:44:06.698Z,1.20
2019-03-19T10:46:35.280Z,1.30
2019-03-19T10:49:03.849Z,1.40
2019-03-19T10:51:32.420Z,1.20
2019-03-19T10:54:01.091Z,1.30
2019-03-19T10:56:29.672Z,1.13
2019-03-19T10:58:58.260Z,1.20
2019-03-19T11:01:26.862Z,1.73
2019-03-19T11:03:55.419Z,1.50
2019-03-19T11:06:23.997Z,1.50
2019-03-19T11:08:52.579Z,1.30
2019-03-19T11:11:21.149Z,1.30
2019-03-19T11:13:49.706Z,1.27
2019-03-19T11:16:18.271Z,1.40
2019-03-19T11:18:46.840Z,1.43
2019-03-19T11:21:15.389Z,1.50
2019-03-19T11:23:43.975Z,1.40
2019-03-19T11:26:12.593Z,1.30
2019-03-19T11:28:41.333Z,1.40
2019-03-19T11:31:10.027Z,1.20
2019-03-19T11:33:38.685Z,1.27
2019-03-19T11:36:07.363Z,1.30
2019-03-19T11:38:35.968Z,1.30
2019-03-19T11:41:07.080Z,1.10
2019-03-19T11:43:34.890Z,1.10
2019-03-19T11:46:03.478Z,1.47
2019-03-19T11:48:32.055Z,1.17
2019-03-19T11:51:00.756Z,1.30
2019-03-19T11:53:29.566Z,1.20
2019-03-19T11:55:58.311Z,1.00
2019-03-19T11:58:27.003Z,1.17
2019-03-19T12:00:58.473Z,1.00
2019-03-19T12:03:27.034Z,1.10
2019-03-19T12:05:55.592Z,1.00
2019-03-19T12:08:24.230Z,1.20
2019-03-19T12:10:52.859Z,1.10
2019-03-19T12:13:21.431Z,1.30
2019-03-19T12:15:50.058Z,1.10
2019-03-19T12:18:18.710Z,1.07
2019-03-19T12:20:47.245Z,1.10
2019-03-19T12:23:15.806Z,1.30
2019-03-19T12:25:44.403Z,1.37
2019-03-19T12:28:12.965Z,1.23
2019-03-19T12:30:41.527Z,1.33
2019-03-19T12:33:10.117Z,1.30
2019-03-19T12:35:38.712Z,1.50
2019-03-19T12:38:07.332Z,1.30
2019-03-19T12:40:37.230Z,1.20
2019-03-19T12:43:06.130Z,1.30
2019-03-19T12:45:34.786Z,1.43
2019-03-19T12:48:03.393Z,1.10
2019-03-19T12:50:31.942Z,1.20
2019-03-19T12:53:00.587Z,1.00
2019-03-19T12:55:29.154Z,1.10
2019-03-19T12:57:57.710Z,1.33
2019-03-19T13:00:34.074Z,1.30
2019-03-19T13:02:56.575Z,1.30
2019-03-19T13:05:25.130Z,1.40
2019-03-19T13:07:53.682Z,1.20
2019-03-19T13:10:22.258Z,1.27
2019-03-19T13:12:50.807Z,1.30
2019-03-19T13:15:19.637Z,1.40
2019-03-19T13:17:48.526Z,1.20
2019-03-19T13:20:17.094Z,1.30
2019-03-19T13:22:45.706Z,1.17
2019-03-19T13:25:14.851Z,1.30
2019-03-19T13:27:43.606Z,1.30
2019-03-19T13:30:13.419Z,1.17
2019-03-19T13:32:42.056Z,1.20
2019-03-19T13:35:10.660Z,1.20
2019-03-19T13:37:39.327Z,1.10
2019-03-19T13:40:08.204Z,1.37
2019-03-19T13:42:36.809Z,1.20
2019-03-19T13:45:05.726Z,1.20
2019-03-19T13:47:34.318Z,1.10
2019-03-19T13:50:03.040Z,1.20
2019-03-19T13:52:31.624Z,1.50
2019-03-19T13:55:00.267Z,1.20
2019-03-19T13:57:28.848Z,1.10
2019-03-19T13:59:57.497Z,1.10
2019-03-19T14:02:26.048Z,1.13
2019-03-19T14:04:54.566Z,1.10
2019-03-19T14:07:23.142Z,1.30
2019-03-19T14:09:51.698Z,1.10
2019-03-19T14:12:20.297Z,1.40
2019-03-19T14:14:48.912Z,1.20
2019-03-19T14:17:17.559Z,1.13
2019-03-19T14:19:46.199Z,1.20
2019-03-19T14:22:14.782Z,1.30
2019-03-19T14:24:43.671Z,1.10
2019-03-19T14:27:12.255Z,0.83
2019-03-19T14:29:40.822Z,1.53
2019-03-19T14:32:09.393Z,1.30
2019-03-19T14:34:37.962Z,1.17
2019-03-19T14:37:06.546Z,1.27
2019-03-19T14:39:35.122Z,1.20
2019-03-19T14:42:03.677Z,1.23
2019-03-19T14:44:32.240Z,1.20
2019-03-19T14:47:00.795Z,1.20
2019-03-19T14:49:29.343Z,1.07
2019-03-19T14:51:57.906Z,1.10
2019-03-19T14:54:26.498Z,1.10
2019-03-19T14:56:55.057Z,1.03
2019-03-19T14:59:23.638Z,1.13
2019-03-19T15:01:52.218Z,1.60
2019-03-19T15:04:20.783Z,1.20
2019-03-19T15:06:49.347Z,1.20
2019-03-19T15:09:17.947Z,1.13
2019-03-19T15:11:46.534Z,1.20
2019-03-19T15:14:15.145Z,0.97
2019-03-19T15:16:43.727Z,1.03
2019-03-19T15:19:12.323Z,1.00
2019-03-19T15:21:40.871Z,1.20
2019-03-19T15:24:09.443Z,1.20
2019-03-19T15:26:39.382Z,1.30
2019-03-19T15:29:07.974Z,1.10
2019-03-19T15:31:36.647Z,1.03
2019-03-19T15:34:05.202Z,1.20
2019-03-19T15:36:33.821Z,1.30
2019-03-19T15:39:02.578Z,1.13
2019-03-19T15:41:31.135Z,1.10
2019-03-19T15:43:59.692Z,1.30
2019-03-19T15:46:28.342Z,1.33
2019-03-19T15:48:56.914Z,1.00
2019-03-19T15:51:25.502Z,1.27
2019-03-19T15:53:54.146Z,1.10
2019-03-19T15:56:22.717Z,1.20
2019-03-19T15:58:51.275Z,1.10
2019-03-19T16:01:19.887Z,1.23
2019-03-19T16:03:48.475Z,1.20
2019-03-19T16:06:17.048Z,1.80
2019-03-19T16:08:45.650Z,1.60
2019-03-19T16:11:14.207Z,1.33
2019-03-19T16:13:42.765Z,1.20
2019-03-19T16:16:11.352Z,1.37
2019-03-19T16:18:39.937Z,1.30
2019-03-19T16:21:08.579Z,1.50
2019-03-19T16:23:37.175Z,1.30
2019-03-19T16:26:05.734Z,1.30
2019-03-19T16:28:34.289Z,1.60
2019-03-19T16:31:02.867Z,1.13
2019-03-19T16:33:31.425Z,1.30
2019-03-19T16:36:00.071Z,1.17
2019-03-19T16:38:28.646Z,1.20
2019-03-19T16:40:57.288Z,1.50
2019-03-19T16:43:25.855Z,1.13
2019-03-19T16:45:54.435Z,1.30
2019-03-19T16:48:22.998Z,1.20
2019-03-19T16:50:51.566Z,1.73
2019-03-19T16:53:20.175Z,1.20
2019-03-19T16:55:48.753Z,1.20
2019-03-19T16:58:17.333Z,1.30
2019-03-19T17:00:46.005Z,1.67
2019-03-19T17:03:14.603Z,1.40
2019-03-19T17:05:43.166Z,1.40
2019-03-19T17:08:11.919Z,1.40
2019-03-19T17:10:40.479Z,1.50
2019-03-19T17:13:09.043Z,1.20
2019-03-19T17:15:37.780Z,1.27
2019-03-19T17:18:06.349Z,1.10
2019-03-19T17:20:35.322Z,1.30
2019-03-19T17:23:03.978Z,1.33
2019-03-19T17:25:32.617Z,1.40
2019-03-19T17:28:01.270Z,1.30
2019-03-19T17:30:29.881Z,1.17
2019-03-19T17:32:58.434Z,1.70
2019-03-19T17:35:26.993Z,1.40
2019-03-19T17:37:55.575Z,1.30
2019-03-19T17:40:24.172Z,1.50
2019-03-19T17:42:52.731Z,1.30
2019-03-19T17:45:21.278Z,1.50
2019-03-19T17:47:49.886Z,1.30
2019-03-19T17:50:18.853Z,1.43
2019-03-19T17:52:47.591Z,1.27
2019-03-19T17:55:16.186Z,1.23
2019-03-19T17:57:44.794Z,1.50
2019-03-19T18:00:17.157Z,1.70
2019-03-19T18:02:45.970Z,1.93
2019-03-19T18:05:14.545Z,1.30
2019-03-19T18:07:43.098Z,1.50
2019-03-19T18:10:11.741Z,1.67
2019-03-19T18:12:40.299Z,1.20
2019-03-19T18:15:08.885Z,1.20
2019-03-19T18:17:37.447Z,1.30
2019-03-19T18:20:06.245Z,1.80
2019-03-19T18:22:34.855Z,1.30
2019-03-19T18:25:03.462Z,1.17
2019-03-19T18:27:32.090Z,1.30
2019-03-19T18:30:00.678Z,1.30
2019-03-19T18:32:34.939Z,1.87
2019-03-19T18:34:59.632Z,1.45
2019-03-19T18:37:28.293Z,1.60
2019-03-19T18:39:56.878Z,1.50
2019-03-19T18:42:25.469Z,1.80
2019-03-19T18:44:54.050Z,1.83
2019-03-19T18:47:22.632Z,1.40
2019-03-19T18:49:51.213Z,1.93
2019-03-19T18:52:19.790Z,1.37
2019-03-19T18:54:48.370Z,1.70
2019-03-19T18:57:16.940Z,1.60
2019-03-19T18:59:45.536Z,1.40
2019-03-19T19:02:14.212Z,1.30
2019-03-19T19:04:42.763Z,1.40
2019-03-19T19:07:11.323Z,1.40
2019-03-19T19:09:39.895Z,1.30
2019-03-19T19:12:08.455Z,1.50
2019-03-19T19:14:37.997Z,1.30
2019-03-19T19:17:06.586Z,1.80
2019-03-19T19:19:35.063Z,2.03
2019-03-19T19:22:03.673Z,1.90
2019-03-19T19:24:32.284Z,1.50
2019-03-19T19:27:00.898Z,2.00
2019-03-19T19:29:29.503Z,1.43
2019-03-19T19:31:58.178Z,1.73
2019-03-19T19:34:26.809Z,2.10
2019-03-19T19:36:55.516Z,1.60
2019-03-19T19:39:24.190Z,1.30
2019-03-19T19:41:52.759Z,1.87
2019-03-19T19:44:21.350Z,1.60
2019-03-19T19:46:49.921Z,1.50
2019-03-19T19:49:18.553Z,1.40
2019-03-19T19:51:47.203Z,1.40
2019-03-19T19:54:15.817Z,1.53
2019-03-19T19:56:44.534Z,1.37
2019-03-19T19:59:13.212Z,1.60
2019-03-19T20:01:41.755Z,1.40
2019-03-19T20:04:10.368Z,1.33
2019-03-19T20:06:39.072Z,1.70
2019-03-19T20:09:07.851Z,1.30
2019-03-19T20:11:38.537Z,1.40
2019-03-19T20:14:06.931Z,1.37
2019-03-19T20:16:35.575Z,1.30
2019-03-19T20:19:04.235Z,1.23
2019-03-19T20:21:32.816Z,1.60
2019-03-19T20:24:01.404Z,1.20
2019-03-19T20:26:30.047Z,1.40
2019-03-19T20:28:58.627Z,1.20
2019-03-19T20:31:27.216Z,1.30
2019-03-19T20:33:55.831Z,1.77
2019-03-19T20:36:24.447Z,1.50
2019-03-19T20:38:53.122Z,1.93
2019-03-19T20:41:21.777Z,1.30
2019-03-19T20:43:50.347Z,1.80
2019-03-19T20:46:18.947Z,1.80
2019-03-19T20:48:47.536Z,1.20
2019-03-19T20:51:16.113Z,2.00
2019-03-19T20:53:44.674Z,1.83
2019-03-19T20:56:13.263Z,1.63
2019-03-19T20:58:43.753Z,1.40
2019-03-19T21:01:12.118Z,1.13
2019-03-19T21:03:40.796Z,1.53
2019-03-19T21:06:09.487Z,1.83
2019-03-19T21:08:38.080Z,1.70
2019-03-19T21:11:06.658Z,1.30
2019-03-19T21:13:35.306Z,1.20
2019-03-19T21:16:03.942Z,1.50
2019-03-19T21:18:32.538Z,1.30
2019-03-19T21:21:01.184Z,1.20
2019-03-19T21:23:29.803Z,1.40
2019-03-19T21:25:58.957Z,1.20
2019-03-19T21:28:27.660Z,1.30
2019-03-19T21:30:56.255Z,1.30
2019-03-19T21:33:24.819Z,1.30
2019-03-19T21:35:53.458Z,1.20
2019-03-19T21:38:22.191Z,1.80
2019-03-19T21:40:50.901Z,1.33
2019-03-19T21:43:19.544Z,1.50
2019-03-19T21:45:48.233Z,1.50
2019-03-19T21:48:16.865Z,1.43
2019-03-19T21:50:45.430Z,1.33
2019-03-19T21:53:14.045Z,1.50
2019-03-19T21:55:42.614Z,1.93
2019-03-19T21:58:11.213Z,1.90
2019-03-19T22:00:39.801Z,1.80
2019-03-19T22:03:08.417Z,1.80
2019-03-19T22:05:37.095Z,1.47
2019-03-19T22:08:05.774Z,1.93
2019-03-19T22:10:34.441Z,1.50
2019-03-19T22:13:03.075Z,2.13
2019-03-19T22:15:31.706Z,1.40
2019-03-19T22:18:00.351Z,1.30
2019-03-19T22:20:28.937Z,1.80
2019-03-19T22:22:57.556Z,2.10
2019-03-19T22:25:26.175Z,1.90
2019-03-19T22:27:54.840Z,1.70
2019-03-19T22:30:23.468Z,1.20
2019-03-19T22:32:52.130Z,1.67
2019-03-19T22:35:20.786Z,1.20
2019-03-19T22:37:49.444Z,1.20
2019-03-19T22:40:18.128Z,1.67
2019-03-19T22:42:46.828Z,1.60
2019-03-19T22:45:15.504Z,1.50
2019-03-19T22:47:44.144Z,1.30
2019-03-19T22:50:13.121Z,1.97
2019-03-19T22:52:41.748Z,1.60
2019-03-19T22:55:10.446Z,1.40
2019-03-19T22:57:39.062Z,1.30
2019-03-19T23:00:10.119Z,1.77
2019-03-19T23:02:38.694Z,1.10
2019-03-19T23:05:07.279Z,1.87
2019-03-19T23:07:35.847Z,1.87
2019-03-19T23:10:04.876Z,1.03
2019-03-19T23:12:33.437Z,1.03
2019-03-19T23:15:02.079Z,1.30
2019-03-19T23:17:30.714Z,1.90
2019-03-19T23:19:59.275Z,1.30
2019-03-19T23:22:27.857Z,1.67
2019-03-19T23:24:56.419Z,1.50
2019-03-19T23:27:24.983Z,1.30
2019-03-19T23:29:53.633Z,1.30
2019-03-19T23:32:24.717Z,1.13
2019-03-19T23:34:52.530Z,1.03
2019-03-19T23:37:21.113Z,1.50
2019-03-19T23:39:49.717Z,1.77
2019-03-19T23:42:18.295Z,1.43
2019-03-19T23:44:47.788Z,1.20
2019-03-19T23:47:16.398Z,1.37
2019-03-19T23:49:45.095Z,1.63
2019-03-19T23:52:13.741Z,1.70
2019-03-19T23:54:42.343Z,1.30
2019-03-19T23:57:10.921Z,1.23
2019-03-19T23:59:39.504Z,1.30
